createdAt,value
2017-08-16T00:01:43.239Z,18.39
2017-08-16T00:04:11.084Z,18.39
2017-08-16T00:06:38.916Z,18.39
2017-08-16T00:09:06.817Z,18.37
2017-08-16T00:11:34.653Z,18.33
2017-08-16T00:14:02.512Z,18.28
2017-08-16T00:16:30.249Z,18.23
2017-08-16T00:18:58.131Z,18.18
2017-08-16T00:21:25.958Z,18.14
2017-08-16T00:23:53.728Z,18.10
2017-08-16T00:26:21.538Z,18.13
2017-08-16T00:28:49.420Z,18.14
2017-08-16T00:31:17.297Z,18.13
2017-08-16T00:33:45.170Z,18.12
2017-08-16T00:36:12.998Z,18.09
2017-08-16T00:38:40.893Z,18.06
2017-08-16T00:41:08.768Z,18.10
2017-08-16T00:43:37.670Z,18.18
2017-08-16T00:46:05.552Z,18.26
2017-08-16T00:51:05.536Z,18.34
2017-08-16T00:53:33.374Z,18.32
2017-08-16T00:56:01.245Z,18.30
2017-08-16T00:58:29.059Z,18.27
2017-08-16T01:00:56.993Z,18.25
2017-08-16T01:03:24.854Z,18.26
2017-08-16T01:05:52.724Z,18.26
2017-08-16T01:08:20.549Z,18.25
2017-08-16T01:10:48.392Z,18.22
2017-08-16T01:13:16.218Z,18.18
2017-08-16T01:15:44.048Z,18.13
2017-08-16T01:18:11.935Z,18.08
2017-08-16T01:20:39.702Z,18.02
2017-08-16T01:23:07.559Z,17.99
2017-08-16T01:25:35.381Z,17.98
2017-08-16T01:28:03.248Z,17.96
2017-08-16T01:30:31.143Z,17.95
2017-08-16T01:32:59.020Z,17.96
2017-08-16T01:35:26.844Z,17.94
2017-08-16T01:37:54.699Z,17.90
2017-08-16T01:40:22.516Z,17.86
2017-08-16T01:42:50.288Z,17.82
2017-08-16T01:45:18.165Z,17.79
2017-08-16T01:47:45.972Z,17.69
2017-08-16T01:50:13.841Z,17.65
2017-08-16T01:52:41.672Z,17.62
2017-08-16T01:55:09.530Z,17.59
2017-08-16T01:57:37.346Z,17.55
2017-08-16T02:00:05.226Z,17.51
2017-08-16T02:02:33.042Z,17.49
2017-08-16T02:05:00.927Z,17.41
2017-08-16T02:07:28.762Z,17.29
2017-08-16T02:09:56.669Z,17.23
2017-08-16T02:12:24.485Z,17.17
2017-08-16T02:14:52.620Z,17.16
2017-08-16T02:17:20.458Z,17.21
2017-08-16T02:19:48.332Z,17.28
2017-08-16T02:22:16.220Z,17.42
2017-08-16T02:24:44.073Z,17.55
2017-08-16T02:27:11.938Z,17.64
2017-08-16T02:29:39.785Z,17.68
2017-08-16T02:32:07.654Z,17.71
2017-08-16T02:34:35.473Z,17.69
2017-08-16T02:37:03.343Z,17.70
2017-08-16T02:39:31.159Z,17.71
2017-08-16T02:41:58.930Z,17.71
2017-08-16T02:44:26.760Z,17.70
2017-08-16T02:46:54.629Z,17.67
2017-08-16T02:49:22.483Z,17.69
2017-08-16T02:51:50.350Z,17.70
2017-08-16T02:54:18.229Z,17.69
2017-08-16T02:56:46.088Z,17.70
2017-08-16T02:59:13.966Z,17.72
2017-08-16T03:01:41.891Z,17.72
2017-08-16T03:04:09.820Z,17.70
2017-08-16T03:06:37.655Z,17.69
2017-08-16T03:09:05.611Z,17.69
2017-08-16T03:11:33.468Z,17.66
2017-08-16T03:14:01.382Z,17.65
2017-08-16T03:16:29.139Z,17.64
2017-08-16T03:18:57.029Z,17.61
2017-08-16T03:21:24.945Z,17.59
2017-08-16T03:23:52.823Z,17.60
2017-08-16T03:26:20.635Z,17.59
2017-08-16T03:28:48.481Z,17.56
2017-08-16T03:31:16.389Z,17.54
2017-08-16T03:33:44.274Z,17.51
2017-08-16T03:36:12.197Z,17.49
2017-08-16T03:38:40.068Z,17.49
2017-08-16T03:41:07.898Z,17.49
2017-08-16T03:43:35.772Z,17.47
2017-08-16T03:46:03.678Z,17.43
2017-08-16T03:48:31.566Z,17.41
2017-08-16T03:50:59.495Z,17.38
2017-08-16T03:53:27.392Z,17.39
2017-08-16T03:55:55.281Z,17.38
2017-08-16T03:58:23.141Z,17.38
2017-08-16T04:00:50.985Z,17.38
2017-08-16T04:03:18.920Z,17.40
2017-08-16T04:05:46.795Z,17.39
2017-08-16T04:08:14.733Z,17.41
2017-08-16T04:10:42.663Z,17.41
2017-08-16T04:13:10.456Z,17.39
2017-08-16T04:15:38.249Z,17.39
2017-08-16T04:18:06.197Z,17.39
2017-08-16T04:20:34.086Z,17.37
2017-08-16T04:23:02.026Z,17.38
2017-08-16T04:25:29.918Z,17.38
2017-08-16T04:27:57.844Z,17.37
2017-08-16T04:30:25.696Z,17.37
2017-08-16T04:32:53.615Z,17.38
2017-08-16T04:35:21.503Z,17.36
2017-08-16T04:37:49.448Z,17.39
2017-08-16T04:40:17.311Z,17.42
2017-08-16T04:42:45.149Z,17.44
2017-08-16T04:45:12.993Z,17.45
2017-08-16T04:47:40.772Z,17.45
2017-08-16T04:50:08.609Z,17.47
2017-08-16T04:52:36.368Z,17.47
2017-08-16T04:55:04.164Z,17.51
2017-08-16T04:57:31.944Z,17.52
2017-08-16T04:59:59.772Z,17.52
2017-08-16T05:02:27.559Z,17.55
2017-08-16T05:04:55.323Z,17.51
2017-08-16T05:07:23.103Z,17.52
2017-08-16T05:09:50.903Z,17.53
2017-08-16T05:12:18.706Z,17.54
2017-08-16T05:14:46.585Z,17.53
2017-08-16T05:17:14.376Z,17.53
2017-08-16T05:19:42.140Z,17.54
2017-08-16T05:22:09.976Z,17.52
2017-08-16T05:24:37.727Z,17.54
2017-08-16T05:27:05.558Z,17.58
2017-08-16T05:29:33.432Z,17.62
2017-08-16T05:32:01.231Z,17.63
2017-08-16T05:34:29.001Z,17.64
2017-08-16T05:36:56.841Z,17.65
2017-08-16T05:39:24.653Z,17.68
2017-08-16T05:41:52.499Z,17.71
2017-08-16T05:44:20.260Z,17.70
2017-08-16T05:46:48.087Z,17.70
2017-08-16T05:49:15.876Z,17.72
2017-08-16T05:51:43.669Z,17.76
2017-08-16T05:54:11.437Z,17.80
2017-08-16T05:56:39.216Z,17.85
2017-08-16T05:59:07.008Z,17.92
2017-08-16T06:01:34.747Z,17.95
2017-08-16T06:04:02.586Z,17.97
2017-08-16T06:06:30.296Z,18.01
2017-08-16T06:08:58.136Z,18.04
2017-08-16T06:11:25.870Z,18.03
2017-08-16T06:13:53.667Z,18.02
2017-08-16T06:16:21.416Z,18.03
2017-08-16T06:18:49.200Z,18.05
2017-08-16T06:21:16.989Z,18.09
2017-08-16T06:23:44.767Z,18.09
2017-08-16T06:26:12.511Z,18.05
2017-08-16T06:28:40.237Z,18.02
2017-08-16T06:31:08.027Z,18.00
2017-08-16T06:33:35.778Z,18.02
2017-08-16T06:36:03.553Z,18.05
2017-08-16T06:38:31.285Z,18.13
2017-08-16T06:40:59.089Z,18.17
2017-08-16T06:43:26.843Z,18.23
2017-08-16T06:45:54.712Z,18.31
2017-08-16T06:48:22.678Z,18.37
2017-08-16T06:50:50.541Z,18.40
2017-08-16T06:53:18.352Z,18.42
2017-08-16T06:55:46.237Z,18.45
2017-08-16T06:58:14.065Z,18.44
2017-08-16T07:00:42.022Z,18.50
2017-08-16T07:03:09.864Z,18.60
2017-08-16T07:05:37.708Z,18.65
2017-08-16T07:08:05.660Z,18.71
2017-08-16T07:10:33.531Z,18.88
2017-08-16T07:13:01.441Z,19.12
2017-08-16T07:15:29.371Z,19.37
2017-08-16T07:17:57.174Z,19.78
2017-08-16T07:20:24.997Z,20.27
2017-08-16T07:22:52.806Z,20.79
2017-08-16T07:25:20.604Z,21.21
2017-08-16T07:27:48.406Z,21.15
2017-08-16T07:30:16.224Z,20.79
2017-08-16T07:32:44.007Z,20.66
2017-08-16T07:35:11.790Z,20.64
2017-08-16T07:37:39.592Z,20.64
2017-08-16T07:40:07.322Z,20.38
2017-08-16T07:42:35.212Z,20.37
2017-08-16T07:45:03.036Z,20.43
2017-08-16T07:47:30.776Z,20.69
2017-08-16T07:49:58.651Z,21.00
2017-08-16T07:52:26.494Z,21.20
2017-08-16T07:54:54.418Z,21.28
2017-08-16T07:57:22.270Z,21.25
2017-08-16T07:59:50.168Z,21.36
2017-08-16T08:02:17.927Z,21.66
2017-08-16T08:04:45.820Z,21.80
2017-08-16T08:07:13.674Z,21.53
2017-08-16T08:09:41.623Z,21.14
2017-08-16T08:12:09.484Z,20.91
2017-08-16T08:14:37.313Z,20.73
2017-08-16T08:17:05.146Z,20.71
2017-08-16T08:19:32.899Z,20.64
2017-08-16T08:22:00.685Z,20.70
2017-08-16T08:24:28.477Z,21.20
2017-08-16T08:26:56.417Z,21.56
2017-08-16T08:29:24.184Z,21.69
2017-08-16T08:31:51.973Z,21.65
2017-08-16T08:34:19.830Z,21.68
2017-08-16T08:36:47.628Z,21.48
2017-08-16T08:39:15.463Z,21.38
2017-08-16T08:41:43.371Z,21.77
2017-08-16T08:44:11.232Z,22.42
2017-08-16T08:46:39.197Z,22.85
2017-08-16T08:49:07.043Z,22.70
2017-08-16T08:51:34.890Z,22.54
2017-08-16T08:54:02.806Z,22.42
2017-08-16T08:56:30.684Z,22.34
2017-08-16T08:58:58.587Z,22.39
2017-08-16T09:01:26.426Z,22.41
2017-08-16T09:03:54.307Z,22.60
2017-08-16T09:06:22.184Z,22.60
2017-08-16T09:08:50.109Z,22.27
2017-08-16T09:11:17.847Z,21.91
2017-08-16T09:13:45.777Z,21.71
2017-08-16T09:16:13.633Z,21.47
2017-08-16T09:18:41.497Z,21.43
2017-08-16T09:21:09.302Z,21.54
2017-08-16T09:23:37.158Z,21.52
2017-08-16T09:26:05.103Z,21.53
2017-08-16T09:28:32.963Z,21.65
2017-08-16T09:31:00.841Z,21.74
2017-08-16T09:33:28.684Z,21.84
2017-08-16T09:35:56.566Z,22.13
2017-08-16T09:38:24.395Z,22.44
2017-08-16T09:40:52.322Z,22.64
2017-08-16T09:43:20.202Z,22.67
2017-08-16T09:45:48.088Z,22.49
2017-08-16T09:48:15.941Z,22.24
2017-08-16T09:50:43.788Z,21.99
2017-08-16T09:53:11.681Z,21.77
2017-08-16T09:55:39.515Z,21.71
2017-08-16T09:58:07.416Z,21.79
2017-08-16T10:00:35.245Z,21.89
2017-08-16T10:03:03.150Z,21.85
2017-08-16T10:05:30.998Z,21.72
2017-08-16T10:07:58.864Z,21.61
2017-08-16T10:10:26.778Z,21.46
2017-08-16T10:12:54.663Z,21.47
2017-08-16T10:15:22.505Z,21.65
2017-08-16T10:17:50.308Z,21.79
2017-08-16T10:20:18.180Z,21.99
2017-08-16T10:22:46.008Z,22.16
2017-08-16T10:25:13.928Z,22.33
2017-08-16T10:27:41.764Z,22.58
2017-08-16T10:30:09.671Z,22.66
2017-08-16T10:32:37.402Z,22.61
2017-08-16T10:35:05.220Z,22.59
2017-08-16T10:37:32.949Z,22.55
2017-08-16T10:40:00.766Z,22.52
2017-08-16T10:42:28.650Z,22.42
2017-08-16T10:44:56.470Z,22.25
2017-08-16T10:47:24.326Z,22.12
2017-08-16T10:49:52.241Z,22.12
2017-08-16T10:52:20.207Z,22.23
2017-08-16T10:54:48.091Z,22.25
2017-08-16T10:57:15.939Z,22.38
2017-08-16T10:59:43.777Z,22.48
2017-08-16T11:02:11.650Z,22.60
2017-08-16T11:04:39.486Z,22.52
2017-08-16T11:07:07.370Z,22.51
2017-08-16T11:09:35.233Z,22.59
2017-08-16T11:12:03.120Z,22.75
2017-08-16T11:14:30.955Z,22.95
2017-08-16T11:16:58.895Z,23.04
2017-08-16T11:19:26.750Z,23.23
2017-08-16T11:21:54.661Z,23.37
2017-08-16T11:24:22.533Z,23.52
2017-08-16T11:26:50.379Z,23.66
2017-08-16T11:29:18.165Z,23.78
2017-08-16T11:31:45.881Z,23.78
2017-08-16T11:34:13.659Z,23.84
2017-08-16T11:36:41.378Z,23.72
2017-08-16T11:39:09.163Z,23.51
2017-08-16T11:41:36.911Z,23.51
2017-08-16T11:44:04.688Z,23.80
2017-08-16T11:46:32.404Z,24.48
2017-08-16T11:49:00.167Z,25.04
2017-08-16T11:51:27.888Z,25.36
2017-08-16T11:53:55.641Z,25.37
2017-08-16T11:56:23.386Z,25.22
2017-08-16T11:58:51.135Z,24.52
2017-08-16T12:01:18.936Z,24.33
2017-08-16T12:03:46.655Z,24.25
2017-08-16T12:06:14.466Z,24.26
2017-08-16T12:08:42.239Z,24.62
2017-08-16T12:11:10.086Z,24.88
2017-08-16T12:13:37.811Z,24.44
2017-08-16T12:16:05.581Z,24.27
2017-08-16T12:18:33.309Z,24.27
2017-08-16T12:21:01.068Z,24.44
2017-08-16T12:23:28.809Z,24.66
2017-08-16T12:25:56.578Z,24.92
2017-08-16T12:28:24.337Z,25.02
2017-08-16T12:30:52.094Z,24.90
2017-08-16T12:33:20.462Z,24.82
2017-08-16T12:35:48.322Z,24.72
2017-08-16T12:38:16.210Z,24.22
2017-08-16T12:40:44.031Z,24.15
2017-08-16T12:43:11.893Z,24.20
2017-08-16T12:45:39.720Z,24.36
2017-08-16T12:48:07.578Z,24.44
2017-08-16T12:50:35.323Z,24.35
2017-08-16T12:53:03.107Z,24.33
2017-08-16T12:55:30.886Z,24.22
2017-08-16T12:57:58.735Z,24.36
2017-08-16T13:00:26.552Z,24.49
2017-08-16T13:02:54.393Z,24.81
2017-08-16T13:05:22.328Z,24.99
2017-08-16T13:07:50.220Z,25.19
2017-08-16T13:10:18.164Z,25.20
2017-08-16T13:12:45.920Z,25.27
2017-08-16T13:15:13.787Z,24.67
2017-08-16T13:17:41.554Z,24.05
2017-08-16T13:20:09.445Z,24.07
2017-08-16T13:22:37.287Z,24.35
2017-08-16T13:25:05.186Z,24.67
2017-08-16T13:27:33.010Z,24.91
2017-08-16T13:30:00.876Z,25.11
2017-08-16T13:32:28.714Z,25.07
2017-08-16T13:34:56.597Z,24.61
2017-08-16T13:37:24.426Z,24.28
2017-08-16T13:39:52.248Z,24.08
2017-08-16T13:42:20.057Z,24.36
2017-08-16T13:44:47.913Z,24.94
2017-08-16T13:47:15.817Z,24.95
2017-08-16T13:49:43.649Z,24.36
2017-08-16T13:52:11.550Z,23.96
2017-08-16T13:54:39.369Z,23.67
2017-08-16T13:57:07.137Z,23.46
2017-08-16T13:59:35.011Z,23.26
2017-08-16T14:02:02.893Z,23.15
2017-08-16T14:04:30.717Z,23.35
2017-08-16T14:06:58.578Z,23.86
2017-08-16T14:09:26.437Z,24.23
2017-08-16T14:11:54.235Z,24.50
2017-08-16T14:14:22.080Z,24.64
2017-08-16T14:16:49.912Z,24.57
2017-08-16T14:19:17.801Z,24.27
2017-08-16T14:21:45.631Z,24.46
2017-08-16T14:24:13.506Z,24.68
2017-08-16T14:26:41.346Z,24.92
2017-08-16T14:29:09.206Z,25.07
2017-08-16T14:31:37.048Z,25.17
2017-08-16T14:34:04.936Z,24.99
2017-08-16T14:36:32.745Z,24.71
2017-08-16T14:39:00.633Z,24.79
2017-08-16T14:41:28.371Z,24.91
2017-08-16T14:43:56.257Z,25.03
2017-08-16T14:46:24.007Z,25.14
2017-08-16T14:48:51.894Z,25.21
2017-08-16T14:51:19.766Z,25.31
2017-08-16T14:53:47.591Z,25.29
2017-08-16T14:56:15.464Z,25.14
2017-08-16T14:58:43.288Z,25.04
2017-08-16T15:01:11.160Z,25.29
2017-08-16T15:03:39.004Z,25.57
2017-08-16T15:06:06.887Z,25.72
2017-08-16T15:08:34.697Z,25.61
2017-08-16T15:11:02.645Z,25.60
2017-08-16T15:13:30.386Z,25.51
2017-08-16T15:15:58.180Z,25.33
2017-08-16T15:18:25.930Z,25.26
2017-08-16T15:20:53.760Z,25.24
2017-08-16T15:23:21.650Z,25.12
2017-08-16T15:25:49.461Z,25.02
2017-08-16T15:28:17.327Z,24.93
2017-08-16T15:30:45.137Z,24.74
2017-08-16T15:33:13.022Z,24.68
2017-08-16T15:35:40.849Z,24.62
2017-08-16T15:38:08.740Z,24.31
2017-08-16T15:40:36.561Z,23.96
2017-08-16T15:43:04.444Z,23.75
2017-08-16T15:45:32.267Z,23.88
2017-08-16T15:48:00.153Z,24.12
2017-08-16T15:50:28.005Z,24.33
2017-08-16T15:52:55.815Z,24.36
2017-08-16T15:55:23.741Z,24.15
2017-08-16T15:57:51.576Z,24.08
2017-08-16T16:00:19.354Z,24.09
2017-08-16T16:02:47.189Z,24.16
2017-08-16T16:05:14.978Z,24.17
2017-08-16T16:07:42.716Z,24.01
2017-08-16T16:10:10.630Z,23.71
2017-08-16T16:12:38.478Z,23.37
2017-08-16T16:15:06.524Z,23.20
2017-08-16T16:17:34.361Z,23.14
2017-08-16T16:20:02.249Z,23.14
2017-08-16T16:22:30.084Z,23.15
2017-08-16T16:24:57.950Z,23.10
2017-08-16T16:27:25.803Z,23.06
2017-08-16T16:29:53.640Z,23.03
2017-08-16T16:32:21.477Z,23.01
2017-08-16T16:34:49.228Z,23.02
2017-08-16T16:37:17.103Z,23.03
2017-08-16T16:39:44.947Z,22.96
2017-08-16T16:42:12.842Z,22.88
2017-08-16T16:44:40.695Z,22.78
2017-08-16T16:47:08.556Z,22.67
2017-08-16T16:49:36.417Z,22.59
2017-08-16T16:52:04.244Z,22.61
2017-08-16T16:54:32.145Z,22.67
2017-08-16T16:56:59.968Z,22.63
2017-08-16T16:59:27.836Z,22.60
2017-08-16T17:01:55.672Z,22.50
2017-08-16T17:04:23.441Z,22.45
2017-08-16T17:06:51.171Z,22.42
2017-08-16T17:09:18.965Z,22.35
2017-08-16T17:11:46.708Z,22.25
2017-08-16T17:14:14.493Z,22.09
2017-08-16T17:16:42.209Z,22.00
2017-08-16T17:19:10.006Z,21.87
2017-08-16T17:21:37.771Z,21.77
2017-08-16T17:24:05.600Z,21.71
2017-08-16T17:26:33.404Z,21.62
2017-08-16T17:29:01.146Z,21.49
2017-08-16T17:31:28.925Z,21.41
2017-08-16T17:33:56.777Z,21.30
2017-08-16T17:36:24.593Z,21.18
2017-08-16T17:38:52.466Z,21.04
2017-08-16T17:41:20.353Z,20.96
2017-08-16T17:43:48.209Z,20.90
2017-08-16T17:46:16.105Z,20.80
2017-08-16T17:48:43.932Z,20.68
2017-08-16T17:51:11.748Z,20.59
2017-08-16T17:53:39.485Z,20.47
2017-08-16T17:56:07.265Z,20.38
2017-08-16T17:58:35.094Z,20.29
2017-08-16T18:01:02.987Z,20.19
2017-08-16T18:03:30.885Z,20.10
2017-08-16T18:05:58.748Z,19.97
2017-08-16T18:08:26.653Z,19.87
2017-08-16T18:10:54.537Z,19.80
2017-08-16T18:13:22.419Z,19.70
2017-08-16T18:15:50.249Z,19.56
2017-08-16T18:18:18.072Z,19.46
2017-08-16T18:20:45.800Z,19.33
2017-08-16T18:23:13.617Z,19.16
2017-08-16T18:25:41.381Z,19.05
2017-08-16T18:28:09.178Z,18.88
2017-08-16T18:30:36.941Z,18.76
2017-08-16T18:33:04.713Z,18.67
2017-08-16T18:35:32.466Z,18.50
2017-08-16T18:38:00.300Z,18.37
2017-08-16T18:40:28.059Z,18.31
2017-08-16T18:42:58.991Z,18.29
2017-08-16T18:45:28.661Z,18.24
2017-08-16T18:47:58.129Z,18.20
2017-08-16T18:50:27.390Z,18.16
2017-08-16T18:52:57.118Z,18.12
2017-08-16T18:55:26.298Z,18.07
2017-08-16T18:57:55.350Z,18.03
2017-08-16T19:00:24.595Z,17.98
2017-08-16T19:02:55.513Z,17.92
2017-08-16T19:05:26.257Z,17.86
2017-08-16T19:07:55.243Z,17.79
2017-08-16T19:10:25.618Z,17.73
2017-08-16T19:12:55.229Z,17.70
2017-08-16T19:15:24.616Z,17.68
2017-08-16T19:17:54.717Z,17.65
2017-08-16T19:20:23.145Z,17.62
2017-08-16T19:22:52.778Z,17.58
2017-08-16T19:25:21.397Z,17.53
2017-08-16T19:27:51.001Z,17.50
2017-08-16T19:30:21.617Z,17.41
2017-08-16T19:32:52.029Z,17.36
2017-08-16T19:35:22.466Z,17.33
2017-08-16T19:37:51.216Z,17.31
2017-08-16T19:40:20.568Z,17.25
2017-08-16T19:42:50.927Z,17.24
2017-08-16T19:45:19.742Z,17.18
2017-08-16T19:47:50.223Z,17.10
2017-08-16T19:50:20.411Z,17.04
2017-08-16T19:52:50.706Z,16.98
2017-08-16T19:55:19.042Z,16.92
2017-08-16T19:57:50.927Z,16.83
2017-08-16T20:00:20.970Z,16.75
2017-08-16T20:02:52.077Z,16.76
2017-08-16T20:05:20.954Z,16.75
2017-08-16T20:07:50.421Z,16.71
2017-08-16T20:10:18.834Z,16.66
2017-08-16T20:12:47.556Z,16.60
2017-08-16T20:15:18.520Z,16.58
2017-08-16T20:17:50.186Z,16.54
2017-08-16T20:20:19.224Z,16.48
2017-08-16T20:22:48.565Z,16.41
2017-08-16T20:25:17.621Z,16.40
2017-08-16T20:27:48.202Z,16.35
2017-08-16T20:30:17.886Z,16.32
2017-08-16T20:32:47.284Z,16.24
2017-08-16T20:35:20.225Z,16.20
2017-08-16T20:37:50.176Z,16.17
2017-08-16T20:40:18.029Z,16.13
2017-08-16T20:42:46.008Z,16.10
2017-08-16T20:45:17.361Z,16.07
2017-08-16T20:47:48.561Z,16.02
2017-08-16T20:50:16.339Z,15.99
2017-08-16T20:52:44.639Z,15.97
2017-08-16T20:55:18.921Z,15.91
2017-08-16T20:57:47.265Z,15.84
2017-08-16T21:00:15.665Z,15.79
2017-08-16T21:02:44.868Z,15.78
2017-08-16T21:05:15.042Z,15.75
2017-08-16T21:07:45.023Z,15.70
2017-08-16T21:10:15.423Z,15.68
2017-08-16T21:12:43.490Z,15.67
2017-08-16T21:15:16.114Z,15.64
2017-08-16T21:17:45.694Z,15.63
2017-08-16T21:20:13.649Z,15.64
2017-08-16T21:22:43.315Z,15.67
2017-08-16T21:25:16.026Z,15.69
2017-08-16T21:27:45.129Z,15.71
2017-08-16T21:30:15.893Z,15.69
2017-08-16T21:32:45.383Z,15.71
2017-08-16T21:35:16.041Z,15.71
2017-08-16T21:37:44.022Z,15.64
2017-08-16T21:40:12.109Z,15.59
2017-08-16T21:42:42.246Z,15.52
2017-08-16T21:45:13.188Z,15.44
2017-08-16T21:47:42.763Z,15.40
2017-08-16T21:50:11.333Z,15.37
2017-08-16T21:52:41.576Z,15.36
2017-08-16T21:55:13.338Z,15.36
2017-08-16T21:57:43.056Z,15.40
2017-08-16T22:00:14.163Z,15.35
2017-08-16T22:02:43.470Z,15.38
2017-08-16T22:05:13.556Z,15.37
2017-08-16T22:07:42.328Z,15.30
2017-08-16T22:10:13.637Z,15.22
2017-08-16T22:12:43.158Z,15.19
2017-08-16T22:15:11.293Z,15.20
2017-08-16T22:17:39.845Z,15.22
2017-08-16T22:20:08.085Z,15.25
2017-08-16T22:22:38.084Z,15.30
2017-08-16T22:25:05.939Z,15.31
2017-08-16T22:27:34.368Z,15.31
2017-08-16T22:30:03.725Z,15.26
2017-08-16T22:32:32.367Z,15.18
2017-08-16T22:35:05.429Z,15.08
2017-08-16T22:37:33.647Z,14.99
2017-08-16T22:40:03.005Z,14.96
2017-08-16T22:42:31.829Z,14.92
2017-08-16T22:45:00.376Z,14.90
2017-08-16T22:47:29.684Z,14.82
2017-08-16T22:49:58.586Z,14.80
2017-08-16T22:55:02.441Z,14.74
2017-08-16T22:57:30.725Z,14.73
2017-08-16T22:59:59.136Z,14.72
2017-08-16T23:02:27.713Z,14.70
2017-08-16T23:04:56.550Z,14.67
2017-08-16T23:07:26.552Z,14.67
2017-08-16T23:09:56.469Z,14.68
2017-08-16T23:12:25.440Z,14.66
2017-08-16T23:14:54.130Z,14.63
2017-08-16T23:17:24.078Z,14.57
2017-08-16T23:19:54.698Z,14.49
2017-08-16T23:22:25.297Z,14.38
2017-08-16T23:24:53.353Z,14.31
2017-08-16T23:27:24.690Z,14.28
2017-08-16T23:29:53.538Z,14.21
2017-08-16T23:32:22.877Z,14.18
2017-08-16T23:34:52.859Z,14.21
2017-08-16T23:37:21.698Z,14.21
2017-08-16T23:39:52.589Z,14.19
2017-08-16T23:42:21.553Z,14.22
2017-08-16T23:44:50.437Z,14.20
2017-08-16T23:47:19.482Z,14.18
2017-08-16T23:49:48.413Z,14.07
2017-08-16T23:52:17.207Z,14.02
2017-08-16T23:54:46.952Z,14.00
2017-08-16T23:57:16.514Z,13.98
2017-08-16T23:59:44.749Z,13.97
